Time;durP1;ratioP1;P1;durP2;ratioP2;P2;SDS_P1;SDS_P2;PMS_P1;PMS_P2;Temp;Humidity;BMP_temperature;BMP_pressure;BME280_temperature;BME280_humidity;BME280_pressure;Samples;Min_cycle;Max_cycle;Signal;HPM_P1;HPM_P2
2023/11/26 00:00:54;;;;;;;29.90;12.73;;;;;;;;;;4996944;28;20156;-69
2023/11/26 00:03:20;;;;;;;29.53;12.90;;;;;;;;;;4997578;28;20066;-69
2023/11/26 00:05:46;;;;;;;27.73;13.40;;;;;;;;;;4993439;28;20026;-69
2023/11/26 00:08:11;;;;;;;28.07;13.30;;;;;;;;;;4997352;28;20029;-67
2023/11/26 00:10:36;;;;;;;30.27;13.63;;;;;;;;;;4999375;28;20133;-67
2023/11/26 00:13:01;;;;;;;29.10;13.20;;;;;;;;;;5000334;28;20026;-69
2023/11/26 00:15:27;;;;;;;29.17;13.77;;;;;;;;;;5000561;28;20044;-69
2023/11/26 00:17:52;;;;;;;31.27;14.17;;;;;;;;;;4998490;28;20689;-67
2023/11/26 00:20:17;;;;;;;28.93;14.53;;;;;;;;;;4999455;28;20156;-67
2023/11/26 00:22:43;;;;;;;26.73;14.07;;;;;;;;;;4998073;28;20137;-69
2023/11/26 00:25:08;;;;;;;29.30;13.80;;;;;;;;;;4999147;28;20034;-66
2023/11/26 00:27:33;;;;;;;31.30;14.00;;;;;;;;;;5001986;28;20041;-70
2023/11/26 00:29:59;;;;;;;32.40;14.57;;;;;;;;;;4999207;28;20033;-68
2023/11/26 00:32:24;;;;;;;32.70;13.73;;;;;;;;;;4996212;28;20034;-68
2023/11/26 00:34:49;;;;;;;39.33;15.00;;;;;;;;;;4999109;28;20069;-68
2023/11/26 00:37:15;;;;;;;30.50;14.60;;;;;;;;;;5003314;28;20026;-67
2023/11/26 00:39:40;;;;;;;28.67;13.77;;;;;;;;;;4995685;28;20030;-67
2023/11/26 00:42:05;;;;;;;35.27;13.77;;;;;;;;;;5002765;28;20022;-69
2023/11/26 00:44:30;;;;;;;34.40;13.37;;;;;;;;;;5002727;28;20026;-69
2023/11/26 00:46:56;;;;;;;32.70;13.57;;;;;;;;;;4998088;28;20065;-67
2023/11/26 00:49:21;;;;;;;32.07;13.43;;;;;;;;;;5003906;28;20025;-67
2023/11/26 00:51:46;;;;;;;28.27;13.23;;;;;;;;;;5002580;28;20029;-69
2023/11/26 00:54:12;;;;;;;32.03;13.93;;;;;;;;;;5001186;28;20065;-66
2023/11/26 00:56:37;;;;;;;35.00;14.13;;;;;;;;;;5001748;28;20539;-69
2023/11/26 00:59:03;;;;;;;29.23;13.57;;;;;;;;;;5000565;28;20027;-68
2023/11/26 01:01:28;;;;;;;34.23;14.60;;;;;;;;;;5000615;28;20470;-67
2023/11/26 01:03:54;;;;;;;34.73;14.53;;;;;;;;;;5001767;28;20055;-68
2023/11/26 01:06:19;;;;;;;36.77;15.03;;;;;;;;;;4998444;28;20034;-68
2023/11/26 01:08:44;;;;;;;35.60;15.03;;;;;;;;;;5015163;28;20222;-69
2023/11/26 01:11:13;;;;;;;37.07;15.60;;;;;;;;;;5002462;28;20037;-68
2023/11/26 01:13:39;;;;;;;36.87;15.50;;;;;;;;;;5001232;28;20040;-68
2023/11/26 01:16:04;;;;;;;44.10;16.40;;;;;;;;;;5002364;28;20021;-67
2023/11/26 01:18:30;;;;;;;41.67;17.37;;;;;;;;;;5001493;28;20041;-67
2023/11/26 01:20:55;;;;;;;38.77;17.63;;;;;;;;;;5002629;28;20220;-69
2023/11/26 01:23:21;;;;;;;37.87;16.57;;;;;;;;;;5001003;28;20654;-68
2023/11/26 01:25:46;;;;;;;40.83;16.83;;;;;;;;;;4998809;28;20079;-69
2023/11/26 01:28:12;;;;;;;43.97;16.77;;;;;;;;;;5002484;28;20049;-68
2023/11/26 01:30:38;;;;;;;44.47;17.77;;;;;;;;;;5000656;28;20080;-68
2023/11/26 01:33:04;;;;;;;37.53;17.00;;;;;;;;;;5002226;28;20017;-69
2023/11/26 01:35:29;;;;;;;45.70;17.60;;;;;;;;;;4999555;28;20026;-68
2023/11/26 01:37:55;;;;;;;37.17;16.47;;;;;;;;;;4998907;28;20014;-68
2023/11/26 01:40:20;;;;;;;44.40;16.47;;;;;;;;;;5000258;28;20034;-69
2023/11/26 01:42:45;;;;;;;41.57;17.00;;;;;;;;;;5003197;28;20025;-68
2023/11/26 01:45:11;;;;;;;53.33;17.20;;;;;;;;;;5003623;28;20022;-69
2023/11/26 01:47:38;;;;;;;41.97;16.53;;;;;;;;;;5000377;28;20034;-69
2023/11/26 01:50:03;;;;;;;47.63;17.57;;;;;;;;;;4995871;28;20109;-69
2023/11/26 01:52:28;;;;;;;60.10;17.67;;;;;;;;;;5000494;28;20100;-70
2023/11/26 01:54:54;;;;;;;55.33;18.20;;;;;;;;;;5003547;28;20463;-69
2023/11/26 01:57:20;;;;;;;47.37;18.67;;;;;;;;;;5005030;28;20030;-68
2023/11/26 01:59:45;;;;;;;60.47;19.17;;;;;;;;;;5004461;28;20529;-68
2023/11/26 02:02:11;;;;;;;75.80;19.77;;;;;;;;;;5000150;28;20018;-69
2023/11/26 02:04:37;;;;;;;91.83;18.93;;;;;;;;;;4991755;28;20034;-62
2023/11/26 02:07:02;;;;;;;108.33;20.00;;;;;;;;;;4999816;28;20030;-63
2023/11/26 02:09:28;;;;;;;137.17;20.73;;;;;;;;;;5002085;28;20482;-64
2023/11/26 02:11:53;;;;;;;132.70;20.30;;;;;;;;;;5000756;28;20177;-61
2023/11/26 02:14:18;;;;;;;96.90;18.10;;;;;;;;;;4995761;28;20595;-62
2023/11/26 02:16:47;;;;;;;140.43;19.23;;;;;;;;;;4997786;28;20490;-64
2023/11/26 02:19:21;;;;;;;134.87;19.43;;;;;;;;;;5004141;28;20061;-64
2023/11/26 02:21:46;;;;;;;156.47;19.17;;;;;;;;;;5002728;28;20053;-63
2023/11/26 02:24:14;;;;;;;226.00;20.23;;;;;;;;;;5005678;28;20368;-63
2023/11/26 02:26:39;;;;;;;141.63;19.43;;;;;;;;;;5004384;28;20061;-62
2023/11/26 02:29:07;;;;;;;152.47;19.23;;;;;;;;;;5005842;28;20050;-64
2023/11/26 02:31:32;;;;;;;113.07;18.33;;;;;;;;;;5002142;28;20034;-62
2023/11/26 02:33:57;;;;;;;108.37;18.27;;;;;;;;;;5006246;28;20022;-63
2023/11/26 02:36:25;;;;;;;82.30;17.03;;;;;;;;;;5005860;28;20026;-62
2023/11/26 02:38:52;;;;;;;108.43;17.90;;;;;;;;;;5005191;28;20524;-61
2023/11/26 02:41:17;;;;;;;104.47;18.83;;;;;;;;;;5006331;28;20389;-61
2023/11/26 02:43:43;;;;;;;153.40;19.37;;;;;;;;;;5003577;28;20021;-64
2023/11/26 02:46:09;;;;;;;113.30;17.67;;;;;;;;;;5003706;28;20041;-62
2023/11/26 02:48:34;;;;;;;134.37;18.97;;;;;;;;;;5006738;28;20034;-62
2023/11/26 02:50:59;;;;;;;117.27;18.70;;;;;;;;;;5006476;28;20032;-63
2023/11/26 02:53:25;;;;;;;126.50;18.00;;;;;;;;;;5007232;28;20026;-64
2023/11/26 02:55:50;;;;;;;144.20;18.93;;;;;;;;;;5001356;28;20022;-62
2023/11/26 02:58:16;;;;;;;80.80;16.30;;;;;;;;;;5003397;28;20706;-63
2023/11/26 03:00:42;;;;;;;102.97;17.70;;;;;;;;;;5004774;28;20100;-62
2023/11/26 03:03:08;;;;;;;74.83;16.27;;;;;;;;;;5002775;28;20683;-62
2023/11/26 03:05:33;;;;;;;94.83;17.40;;;;;;;;;;5006089;28;20045;-62
2023/11/26 03:08:08;;;;;;;55.90;16.37;;;;;;;;;;5004440;28;20026;-63
2023/11/26 03:13:20;;;;;;;65.13;15.73;;;;;;;;;;5003692;28;20037;-64
2023/11/26 03:15:48;;;;;;;63.83;15.77;;;;;;;;;;5003162;28;20394;-63
2023/11/26 03:18:13;;;;;;;84.23;17.93;;;;;;;;;;5004815;28;20481;-62
2023/11/26 03:20:42;;;;;;;77.87;16.87;;;;;;;;;;5002260;28;20022;-62
2023/11/26 03:23:09;;;;;;;106.53;17.93;;;;;;;;;;5000209;28;20062;-62
2023/11/26 03:25:35;;;;;;;75.90;18.37;;;;;;;;;;5004276;28;20029;-62
2023/11/26 03:28:01;;;;;;;81.70;17.20;;;;;;;;;;5005100;28;20394;-62
2023/11/26 03:30:27;;;;;;;71.20;18.33;;;;;;;;;;5004345;28;20386;-63
2023/11/26 03:32:55;;;;;;;80.67;18.97;;;;;;;;;;5000394;28;20014;-62
2023/11/26 03:35:21;;;;;;;100.10;19.00;;;;;;;;;;5002415;28;20421;-62
2023/11/26 03:37:46;;;;;;;88.67;18.63;;;;;;;;;;5001253;28;20038;-63
2023/11/26 03:40:12;;;;;;;91.43;19.17;;;;;;;;;;5002037;28;20133;-63
2023/11/26 03:42:37;;;;;;;88.07;18.97;;;;;;;;;;5000230;28;20032;-63
2023/11/26 03:45:03;;;;;;;117.17;19.93;;;;;;;;;;5000011;28;20045;-62
2023/11/26 03:47:29;;;;;;;97.83;18.13;;;;;;;;;;4999024;28;20035;-61
2023/11/26 03:49:54;;;;;;;114.33;19.17;;;;;;;;;;5007423;28;20033;-62
2023/11/26 03:52:19;;;;;;;126.80;18.87;;;;;;;;;;5001068;28;20113;-64
2023/11/26 03:54:45;;;;;;;107.53;20.27;;;;;;;;;;5001368;28;20425;-62
2023/11/26 03:57:11;;;;;;;118.00;20.33;;;;;;;;;;5001437;28;20030;-63
2023/11/26 03:59:36;;;;;;;91.10;19.50;;;;;;;;;;4999810;28;20033;-63
2023/11/26 04:02:02;;;;;;;89.97;19.33;;;;;;;;;;5001171;28;20679;-62
2023/11/26 04:04:27;;;;;;;95.77;19.43;;;;;;;;;;5001391;28;20033;-64
2023/11/26 04:06:53;;;;;;;98.40;19.47;;;;;;;;;;5001968;28;20033;-62
2023/11/26 04:09:18;;;;;;;83.43;18.80;;;;;;;;;;4999869;28;20072;-62
2023/11/26 04:11:44;;;;;;;57.07;18.77;;;;;;;;;;4999874;28;20021;-63
2023/11/26 04:14:09;;;;;;;60.23;18.47;;;;;;;;;;5006550;28;20022;-64
2023/11/26 04:16:35;;;;;;;67.17;19.23;;;;;;;;;;4996308;28;20087;-62
2023/11/26 04:19:01;;;;;;;50.70;19.50;;;;;;;;;;5002546;28;20471;-63
2023/11/26 04:21:27;;;;;;;54.43;19.40;;;;;;;;;;4997368;28;20065;-62
2023/11/26 04:23:52;;;;;;;57.60;19.47;;;;;;;;;;5006123;28;20467;-62
2023/11/26 04:26:17;;;;;;;49.90;18.93;;;;;;;;;;5002301;28;20040;-63
2023/11/26 04:28:43;;;;;;;51.90;18.73;;;;;;;;;;4997917;28;20061;-63
2023/11/26 04:31:08;;;;;;;43.60;17.70;;;;;;;;;;5000878;28;20390;-64
2023/11/26 04:33:33;;;;;;;47.03;18.47;;;;;;;;;;5004257;28;20101;-62
2023/11/26 04:35:59;;;;;;;52.50;19.30;;;;;;;;;;5000537;28;20068;-64
2023/11/26 04:38:25;;;;;;;50.30;19.73;;;;;;;;;;4996863;28;20026;-65
2023/11/26 04:40:51;;;;;;;56.70;19.87;;;;;;;;;;4997044;28;20359;-63
2023/11/26 04:43:16;;;;;;;57.03;19.70;;;;;;;;;;4998857;28;20034;-63
2023/11/26 04:45:42;;;;;;;52.57;19.37;;;;;;;;;;4998235;28;20375;-62
2023/11/26 04:48:08;;;;;;;48.30;19.60;;;;;;;;;;5003262;28;20052;-62
2023/11/26 04:50:34;;;;;;;49.10;19.67;;;;;;;;;;5001825;28;20036;-61
2023/11/26 04:52:59;;;;;;;53.57;19.20;;;;;;;;;;5000331;28;20101;-62
2023/11/26 04:55:24;;;;;;;52.37;19.40;;;;;;;;;;5002040;28;20033;-62
2023/11/26 04:57:50;;;;;;;47.83;19.03;;;;;;;;;;4999026;28;20083;-63
2023/11/26 05:00:15;;;;;;;48.90;19.43;;;;;;;;;;5001987;28;20049;-63
2023/11/26 05:02:41;;;;;;;50.73;19.37;;;;;;;;;;4999770;28;20443;-63
2023/11/26 05:05:08;;;;;;;51.10;18.87;;;;;;;;;;4998414;28;20025;-64
2023/11/26 05:07:35;;;;;;;49.10;19.77;;;;;;;;;;4996463;28;20114;-63
2023/11/26 05:10:01;;;;;;;51.83;18.87;;;;;;;;;;4997445;28;20021;-62
2023/11/26 05:12:26;;;;;;;51.00;19.33;;;;;;;;;;5001870;28;20280;-63
2023/11/26 05:14:51;;;;;;;50.83;18.77;;;;;;;;;;4997617;28;20315;-62
2023/11/26 05:17:17;;;;;;;56.40;20.73;;;;;;;;;;4993768;28;20044;-62
2023/11/26 05:19:42;;;;;;;52.17;18.73;;;;;;;;;;4995367;28;20157;-64
2023/11/26 05:22:08;;;;;;;47.83;18.60;;;;;;;;;;5000430;28;20054;-64
2023/11/26 05:24:33;;;;;;;46.50;18.07;;;;;;;;;;4996596;28;20338;-64
2023/11/26 05:26:59;;;;;;;50.30;18.17;;;;;;;;;;4995555;28;20034;-64
2023/11/26 05:29:24;;;;;;;48.20;17.87;;;;;;;;;;4992703;28;20070;-64
2023/11/26 05:31:49;;;;;;;48.30;18.43;;;;;;;;;;5001120;28;20040;-64
2023/11/26 05:34:14;;;;;;;51.97;17.53;;;;;;;;;;4994164;28;20022;-62
2023/11/26 05:36:40;;;;;;;50.43;18.27;;;;;;;;;;4997826;28;20032;-62
2023/11/26 05:39:08;;;;;;;52.27;17.07;;;;;;;;;;4992514;28;20088;-63
2023/11/26 05:41:33;;;;;;;49.77;17.77;;;;;;;;;;4995108;28;20037;-62
2023/11/26 05:43:58;;;;;;;57.67;18.63;;;;;;;;;;4999757;28;20626;-62
2023/11/26 05:46:24;;;;;;;50.67;17.50;;;;;;;;;;4997902;28;20134;-68
2023/11/26 05:48:50;;;;;;;48.27;17.10;;;;;;;;;;4995344;28;20056;-68
2023/11/26 05:51:19;;;;;;;53.67;18.27;;;;;;;;;;4996593;28;20018;-68
2023/11/26 05:53:44;;;;;;;49.00;18.13;;;;;;;;;;4996522;28;20374;-67
2023/11/26 05:56:10;;;;;;;49.50;18.73;;;;;;;;;;4997690;28;20020;-61
2023/11/26 05:58:35;;;;;;;48.73;18.10;;;;;;;;;;4997255;28;20049;-62
2023/11/26 06:01:00;;;;;;;54.63;19.57;;;;;;;;;;4995448;28;20532;-64
2023/11/26 06:03:26;;;;;;;51.47;19.37;;;;;;;;;;5000457;28;20419;-65
2023/11/26 06:05:52;;;;;;;54.27;19.43;;;;;;;;;;4997535;28;20056;-63
2023/11/26 06:08:18;;;;;;;56.23;20.40;;;;;;;;;;4996637;28;20450;-63
2023/11/26 06:10:43;;;;;;;51.07;18.83;;;;;;;;;;4995899;28;20018;-61
2023/11/26 06:13:08;;;;;;;50.73;18.33;;;;;;;;;;4997705;28;20030;-62
2023/11/26 06:15:33;;;;;;;47.83;18.70;;;;;;;;;;4995269;28;20105;-63
2023/11/26 06:17:59;;;;;;;48.57;18.60;;;;;;;;;;4997078;28;20114;-63
2023/11/26 06:20:24;;;;;;;45.23;17.47;;;;;;;;;;4998779;28;20025;-62
2023/11/26 06:22:49;;;;;;;56.87;18.30;;;;;;;;;;4999722;28;20523;-64
2023/11/26 06:25:14;;;;;;;51.73;19.40;;;;;;;;;;4997491;28;20411;-63
2023/11/26 06:27:40;;;;;;;52.80;18.83;;;;;;;;;;4996036;28;20142;-62
2023/11/26 06:30:06;;;;;;;53.60;19.57;;;;;;;;;;5002532;28;20414;-62
2023/11/26 06:32:31;;;;;;;58.53;19.60;;;;;;;;;;4997469;28;20030;-63
2023/11/26 06:34:56;;;;;;;59.60;20.27;;;;;;;;;;4996210;28;20056;-64
2023/11/26 06:37:22;;;;;;;52.10;20.00;;;;;;;;;;4993316;28;20133;-64
2023/11/26 06:39:47;;;;;;;53.03;19.17;;;;;;;;;;5001655;28;20030;-62
2023/11/26 06:42:13;;;;;;;55.97;19.67;;;;;;;;;;5001473;28;20352;-63
2023/11/26 06:44:38;;;;;;;52.20;19.83;;;;;;;;;;4995897;28;20487;-61
2023/11/26 06:47:03;;;;;;;57.33;19.83;;;;;;;;;;4998013;28;20217;-62
2023/11/26 06:49:29;;;;;;;56.00;19.73;;;;;;;;;;4997702;28;20018;-63
2023/11/26 06:51:55;;;;;;;52.33;18.93;;;;;;;;;;5002416;28;20021;-63
2023/11/26 06:54:21;;;;;;;60.77;19.83;;;;;;;;;;5000555;28;20014;-64
2023/11/26 06:56:46;;;;;;;57.33;19.57;;;;;;;;;;5001862;28;20024;-64
2023/11/26 06:59:11;;;;;;;53.40;20.07;;;;;;;;;;4992205;28;20033;-63
2023/11/26 07:01:37;;;;;;;58.50;19.40;;;;;;;;;;4997641;28;20116;-64
2023/11/26 07:04:02;;;;;;;57.73;17.87;;;;;;;;;;5001183;28;20029;-62
2023/11/26 07:06:27;;;;;;;54.97;19.37;;;;;;;;;;5001733;28;20029;-63
2023/11/26 07:08:52;;;;;;;59.17;20.03;;;;;;;;;;5004579;28;20022;-63
2023/11/26 07:11:19;;;;;;;60.10;19.97;;;;;;;;;;5001680;28;20442;-63
2023/11/26 07:13:45;;;;;;;58.60;19.70;;;;;;;;;;5000636;28;20029;-64
2023/11/26 07:16:10;;;;;;;58.90;19.73;;;;;;;;;;5004082;28;20493;-63
2023/11/26 07:18:36;;;;;;;53.73;18.73;;;;;;;;;;5001734;28;20023;-63
2023/11/26 07:21:01;;;;;;;57.80;19.40;;;;;;;;;;5001767;28;20656;-64
2023/11/26 07:23:26;;;;;;;60.23;20.20;;;;;;;;;;5000379;28;20046;-62
2023/11/26 07:25:52;;;;;;;53.67;18.77;;;;;;;;;;5003686;28;20530;-63
2023/11/26 07:28:17;;;;;;;51.80;19.73;;;;;;;;;;5000459;28;20034;-65
2023/11/26 07:30:42;;;;;;;54.97;19.20;;;;;;;;;;4999678;28;20026;-64
2023/11/26 07:33:07;;;;;;;52.20;18.97;;;;;;;;;;4999150;28;20029;-62
2023/11/26 07:35:33;;;;;;;52.93;19.17;;;;;;;;;;4998832;28;20034;-64
2023/11/26 07:38:01;;;;;;;51.97;18.50;;;;;;;;;;5003242;28;20056;-62
2023/11/26 07:40:26;;;;;;;61.17;19.77;;;;;;;;;;5005680;28;20033;-64
2023/11/26 07:42:52;;;;;;;59.70;19.53;;;;;;;;;;5003122;28;20038;-63
2023/11/26 07:45:17;;;;;;;53.97;19.27;;;;;;;;;;5000777;28;20390;-62
2023/11/26 07:47:42;;;;;;;57.87;19.33;;;;;;;;;;5000866;28;20382;-62
2023/11/26 07:50:07;;;;;;;57.33;19.77;;;;;;;;;;5003056;28;20029;-65
2023/11/26 07:52:34;;;;;;;49.43;18.63;;;;;;;;;;5000406;28;20104;-62
2023/11/26 07:55:01;;;;;;;55.50;19.13;;;;;;;;;;4996551;28;20105;-62
2023/11/26 07:57:27;;;;;;;53.97;19.33;;;;;;;;;;4998360;28;20518;-63
2023/11/26 07:59:52;;;;;;;53.57;18.30;;;;;;;;;;5002255;28;20101;-63
2023/11/26 08:02:18;;;;;;;51.57;19.67;;;;;;;;;;5001945;28;20025;-63
2023/11/26 08:04:44;;;;;;;55.50;18.77;;;;;;;;;;4998053;28;20052;-64
2023/11/26 08:07:09;;;;;;;48.03;18.10;;;;;;;;;;5002238;28;20022;-63
2023/11/26 08:09:36;;;;;;;57.27;19.13;;;;;;;;;;5004336;28;20697;-64
2023/11/26 08:12:02;;;;;;;48.03;18.17;;;;;;;;;;5004499;28;20022;-64
2023/11/26 08:14:27;;;;;;;49.83;18.90;;;;;;;;;;5026412;28;20053;-64
2023/11/26 08:16:56;;;;;;;53.97;18.77;;;;;;;;;;5037591;28;20016;-68
2023/11/26 08:19:23;;;;;;;48.60;18.40;;;;;;;;;;5042593;28;20038;-67
2023/11/26 08:21:49;;;;;;;48.00;18.27;;;;;;;;;;5038814;28;20049;-68
2023/11/26 08:24:17;;;;;;;47.97;18.07;;;;;;;;;;5042058;28;20576;-67
2023/11/26 08:26:46;;;;;;;47.07;17.80;;;;;;;;;;5037446;28;20026;-68
2023/11/26 08:29:13;;;;;;;53.57;18.30;;;;;;;;;;5039788;28;20014;-68
2023/11/26 08:31:39;;;;;;;45.53;17.30;;;;;;;;;;5031988;28;20374;-68
2023/11/26 08:34:07;;;;;;;46.13;17.50;;;;;;;;;;5035054;28;20021;-69
2023/11/26 08:36:35;;;;;;;49.13;17.67;;;;;;;;;;5037969;28;20031;-69
2023/11/26 08:39:00;;;;;;;45.50;17.57;;;;;;;;;;5039535;28;20022;-67
2023/11/26 08:41:26;;;;;;;47.40;17.50;;;;;;;;;;5036075;28;20365;-67
2023/11/26 08:43:51;;;;;;;47.63;17.67;;;;;;;;;;5041142;28;20470;-68
2023/11/26 08:46:18;;;;;;;42.73;17.10;;;;;;;;;;5042289;28;20017;-65
2023/11/26 08:48:44;;;;;;;41.00;16.70;;;;;;;;;;5039083;28;20529;-67
2023/11/26 08:51:09;;;;;;;42.43;16.30;;;;;;;;;;5037248;28;20013;-65
2023/11/26 08:53:35;;;;;;;34.90;16.17;;;;;;;;;;5034856;28;20055;-66
2023/11/26 08:56:00;;;;;;;38.07;15.57;;;;;;;;;;5028734;28;20172;-67
2023/11/26 08:58:26;;;;;;;35.33;14.70;;;;;;;;;;5040655;28;20029;-67
2023/11/26 09:00:51;;;;;;;33.33;14.07;;;;;;;;;;5039148;28;20047;-67
2023/11/26 09:03:16;;;;;;;37.20;13.63;;;;;;;;;;5034999;28;20155;-67
2023/11/26 09:05:42;;;;;;;31.47;13.37;;;;;;;;;;5037926;28;20032;-68
2023/11/26 09:08:07;;;;;;;37.47;14.57;;;;;;;;;;5036845;28;20089;-67
2023/11/26 09:10:34;;;;;;;42.57;16.33;;;;;;;;;;5038375;28;20021;-66
2023/11/26 09:12:59;;;;;;;36.77;14.77;;;;;;;;;;5035638;28;20021;-67
2023/11/26 09:15:26;;;;;;;31.20;14.30;;;;;;;;;;5033267;28;20021;-67
2023/11/26 09:17:51;;;;;;;38.53;15.10;;;;;;;;;;5039230;28;20033;-67
2023/11/26 09:20:17;;;;;;;31.90;13.33;;;;;;;;;;5037614;28;20379;-66
2023/11/26 09:22:42;;;;;;;34.13;13.73;;;;;;;;;;5036604;28;20094;-67
2023/11/26 09:25:08;;;;;;;28.57;12.07;;;;;;;;;;5036816;28;20028;-68
2023/11/26 09:27:34;;;;;;;34.90;12.57;;;;;;;;;;5033620;28;20649;-67
2023/11/26 09:29:59;;;;;;;28.10;12.37;;;;;;;;;;5034264;28;20019;-67
2023/11/26 09:32:24;;;;;;;33.93;12.63;;;;;;;;;;5036742;28;20100;-67
2023/11/26 09:34:52;;;;;;;28.37;12.13;;;;;;;;;;5041454;28;20029;-65
2023/11/26 09:37:18;;;;;;;30.27;11.53;;;;;;;;;;5038026;28;20022;-66
2023/11/26 09:39:43;;;;;;;25.77;11.00;;;;;;;;;;5037756;28;20128;-67
2023/11/26 09:42:10;;;;;;;30.17;10.87;;;;;;;;;;5033738;28;20029;-67
2023/11/26 09:44:36;;;;;;;30.10;11.63;;;;;;;;;;5033923;28;20130;-65
2023/11/26 09:47:01;;;;;;;28.10;11.50;;;;;;;;;;5036726;28;20135;-68
2023/11/26 09:49:27;;;;;;;26.20;11.37;;;;;;;;;;5034581;28;20823;-67
2023/11/26 09:51:58;;;;;;;27.87;10.83;;;;;;;;;;5033286;28;20031;-69
2023/11/26 09:54:27;;;;;;;25.95;10.20;;;;;;;;;;5038023;28;20059;-66
2023/11/26 09:56:53;;;;;;;27.90;10.00;;;;;;;;;;5032826;28;20031;-69
2023/11/26 09:59:31;;;;;;;26.93;10.20;;;;;;;;;;5035484;28;20495;-68
2023/11/26 10:02:16;;;;;;;27.53;9.97;;;;;;;;;;5033479;28;20017;-69
2023/11/26 10:04:51;;;;;;;23.03;9.93;;;;;;;;;;5033858;28;20033;-69
2023/11/26 10:07:18;;;;;;;24.30;9.57;;;;;;;;;;5038100;28;20041;-68
2023/11/26 10:09:59;;;;;;;27.47;9.97;;;;;;;;;;5042300;28;20023;-66
2023/11/26 10:12:25;;;;;;;19.60;9.40;;;;;;;;;;5038233;28;20017;-69
2023/11/26 10:15:11;;;;;;;24.40;9.87;;;;;;;;;;5031216;28;20025;-71
2023/11/26 10:17:36;;;;;;;24.60;10.10;;;;;;;;;;5036587;28;20159;-67
2023/11/26 10:20:18;;;;;;;25.17;9.70;;;;;;;;;;5036599;28;20506;-68
2023/11/26 10:22:47;;;;;;;20.88;9.50;;;;;;;;;;5035709;28;20068;-70
2023/11/26 10:25:12;;;;;;;26.70;9.70;;;;;;;;;;5033712;28;20106;-70
2023/11/26 10:27:38;;;;;;;22.37;9.30;;;;;;;;;;5038437;28;20053;-67
2023/11/26 10:30:04;;;;;;;20.17;8.63;;;;;;;;;;5036512;28;20444;-66
2023/11/26 10:32:29;;;;;;;23.07;8.60;;;;;;;;;;5039496;28;20108;-65
2023/11/26 10:34:55;;;;;;;13.97;6.60;;;;;;;;;;5034099;28;20385;-62
2023/11/26 10:37:21;;;;;;;22.57;8.37;;;;;;;;;;5036346;28;20078;-63
2023/11/26 10:39:52;;;;;;;16.43;7.10;;;;;;;;;;5039335;28;20363;-62
2023/11/26 10:42:19;;;;;;;13.88;5.95;;;;;;;;;;5043579;28;20108;-63
2023/11/26 10:44:45;;;;;;;13.57;6.50;;;;;;;;;;5038051;28;20452;-64
2023/11/26 10:47:11;;;;;;;18.63;6.93;;;;;;;;;;5036095;28;20037;-63
2023/11/26 10:49:40;;;;;;;19.90;6.23;;;;;;;;;;5037574;28;20473;-64
2023/11/26 10:52:20;;;;;;;14.63;5.70;;;;;;;;;;5039610;28;20070;-64
2023/11/26 10:55:07;;;;;;;16.03;6.17;;;;;;;;;;5040006;28;20428;-65
2023/11/26 10:57:37;;;;;;;11.70;5.30;;;;;;;;;;5038600;28;20040;-63
2023/11/26 11:00:03;;;;;;;15.20;5.23;;;;;;;;;;5035421;28;20032;-63
2023/11/26 11:02:29;;;;;;;16.23;5.43;;;;;;;;;;5032817;28;20495;-64
2023/11/26 11:04:54;;;;;;;14.43;5.00;;;;;;;;;;5037479;28;20762;-63
2023/11/26 11:07:20;;;;;;;12.27;3.90;;;;;;;;;;5038997;28;20029;-64
2023/11/26 11:09:56;;;;;;;11.93;4.17;;;;;;;;;;5040027;28;20365;-64
2023/11/26 11:12:24;;;;;;;14.00;4.07;;;;;;;;;;5034145;28;20429;-63
2023/11/26 11:14:51;;;;;;;12.80;3.50;;;;;;;;;;5036751;28;20032;-64
2023/11/26 11:17:26;;;;;;;12.10;3.80;;;;;;;;;;5036819;28;20032;-63
2023/11/26 11:19:55;;;;;;;12.60;3.40;;;;;;;;;;5034815;28;20075;-64
2023/11/26 11:22:31;;;;;;;8.50;3.23;;;;;;;;;;5038682;28;20053;-64
2023/11/26 11:25:04;;;;;;;8.53;3.20;;;;;;;;;;5037925;28;20025;-63
2023/11/26 11:27:51;;;;;;;9.03;2.80;;;;;;;;;;5040814;28;20036;-63
2023/11/26 11:30:31;;;;;;;9.07;2.70;;;;;;;;;;5037571;28;20017;-64
2023/11/26 11:33:03;;;;;;;11.13;2.80;;;;;;;;;;5033022;28;20037;-63
2023/11/26 11:35:35;;;;;;;11.23;2.97;;;;;;;;;;5039792;28;20079;-64
2023/11/26 11:38:05;;;;;;;10.83;3.07;;;;;;;;;;5037515;28;20539;-65
2023/11/26 11:40:50;;;;;;;8.27;2.03;;;;;;;;;;5040064;28;20025;-63
2023/11/26 11:43:15;;;;;;;7.70;2.40;;;;;;;;;;5020545;28;20056;-64
2023/11/26 11:45:41;;;;;;;9.30;2.53;;;;;;;;;;5039927;28;20029;-67
2023/11/26 11:48:06;;;;;;;10.20;2.63;;;;;;;;;;5037830;28;20029;-68
2023/11/26 11:50:31;;;;;;;6.97;2.17;;;;;;;;;;5037736;28;20376;-68
2023/11/26 11:52:57;;;;;;;9.40;2.37;;;;;;;;;;5036834;28;20455;-67
2023/11/26 11:55:45;;;;;;;9.00;2.00;;;;;;;;;;5037924;28;20071;-69
2023/11/26 11:58:14;;;;;;;7.10;2.37;;;;;;;;;;5035559;28;20021;-67
2023/11/26 12:00:40;;;;;;;8.10;2.30;;;;;;;;;;5037557;28;20021;-67
2023/11/26 12:03:05;;;;;;;10.00;2.20;;;;;;;;;;5035639;28;20037;-67
2023/11/26 12:05:31;;;;;;;7.80;2.43;;;;;;;;;;5037679;28;20453;-70
2023/11/26 12:07:56;;;;;;;7.60;2.13;;;;;;;;;;5038878;28;20083;-69
2023/11/26 12:10:30;;;;;;;4.73;2.30;;;;;;;;;;5033919;28;20063;-67
2023/11/26 12:13:00;;;;;;;12.13;2.27;;;;;;;;;;5033683;28;20184;-68
2023/11/26 12:15:25;;;;;;;8.73;2.20;;;;;;;;;;5036496;28;20021;-67
2023/11/26 12:17:50;;;;;;;10.27;2.17;;;;;;;;;;5035772;28;20116;-69
2023/11/26 12:20:16;;;;;;;8.47;1.97;;;;;;;;;;5036511;28;20032;-67
2023/11/26 12:22:44;;;;;;;6.97;2.00;;;;;;;;;;5031722;28;20087;-67
2023/11/26 12:25:09;;;;;;;10.70;3.50;;;;;;;;;;5034307;28;20029;-68
2023/11/26 12:27:37;;;;;;;8.73;2.23;;;;;;;;;;5039870;28;20079;-67
2023/11/26 12:30:13;;;;;;;7.70;2.27;;;;;;;;;;5040116;28;20025;-68
2023/11/26 12:32:41;;;;;;;7.83;1.80;;;;;;;;;;5035190;28;20033;-67
2023/11/26 12:35:10;;;;;;;9.63;1.83;;;;;;;;;;5039068;28;20457;-67
2023/11/26 12:37:36;;;;;;;7.87;2.10;;;;;;;;;;5036882;28;20021;-67
2023/11/26 12:40:01;;;;;;;7.97;1.90;;;;;;;;;;5035478;28;20032;-67
2023/11/26 12:42:27;;;;;;;8.63;2.00;;;;;;;;;;5038981;28;20485;-69
2023/11/26 12:44:52;;;;;;;9.67;2.00;;;;;;;;;;5034303;28;20083;-67
2023/11/26 12:47:17;;;;;;;8.33;2.43;;;;;;;;;;5037449;28;20420;-67
2023/11/26 12:49:55;;;;;;;7.60;1.83;;;;;;;;;;5032735;28;20080;-67
2023/11/26 12:52:21;;;;;;;6.87;2.07;;;;;;;;;;5034192;28;20072;-69
2023/11/26 12:54:46;;;;;;;6.77;2.00;;;;;;;;;;5034243;28;20028;-67
2023/11/26 12:57:11;;;;;;;8.27;1.90;;;;;;;;;;5035407;28;20420;-63
2023/11/26 12:59:46;;;;;;;9.77;2.10;;;;;;;;;;5037066;28;20053;-62
2023/11/26 13:02:12;;;;;;;9.97;2.30;;;;;;;;;;5034982;28;20082;-62
2023/11/26 13:04:37;;;;;;;8.40;1.80;;;;;;;;;;5039333;28;20484;-62
2023/11/26 13:07:04;;;;;;;9.57;2.20;;;;;;;;;;5038981;28;20493;-62
2023/11/26 13:09:29;;;;;;;8.47;2.60;;;;;;;;;;5036248;28;20091;-63
2023/11/26 13:12:01;;;;;;;8.77;2.30;;;;;;;;;;5035882;28;20202;-63
2023/11/26 13:14:26;;;;;;;7.70;1.80;;;;;;;;;;5035341;28;20713;-62
2023/11/26 13:16:53;;;;;;;13.63;2.17;;;;;;;;;;5032037;28;20096;-64
2023/11/26 13:19:19;;;;;;;8.07;1.83;;;;;;;;;;5034260;28;20049;-63
2023/11/26 13:21:45;;;;;;;5.83;1.70;;;;;;;;;;5037155;28;20065;-64
2023/11/26 13:24:10;;;;;;;10.03;1.90;;;;;;;;;;5034087;28;20036;-65
2023/11/26 13:26:36;;;;;;;8.17;1.90;;;;;;;;;;5048441;28;20021;-63
2023/11/26 13:29:02;;;;;;;11.77;1.80;;;;;;;;;;5033973;28;20053;-64
2023/11/26 13:31:27;;;;;;;10.37;1.77;;;;;;;;;;5038246;28;20029;-64
2023/11/26 13:33:53;;;;;;;5.93;1.63;;;;;;;;;;5039928;28;20028;-62
2023/11/26 13:36:18;;;;;;;5.97;1.73;;;;;;;;;;5034237;28;20021;-63
2023/11/26 13:38:43;;;;;;;7.60;1.50;;;;;;;;;;5036254;28;20062;-64
2023/11/26 13:41:09;;;;;;;9.53;1.77;;;;;;;;;;5033371;28;20020;-63
2023/11/26 13:43:34;;;;;;;6.23;1.40;;;;;;;;;;5033248;28;20480;-64
2023/11/26 13:45:59;;;;;;;9.73;2.67;;;;;;;;;;5037067;28;20033;-64
2023/11/26 13:48:25;;;;;;;7.00;2.20;;;;;;;;;;5034039;28;20029;-63
2023/11/26 13:50:54;;;;;;;10.53;1.80;;;;;;;;;;5036560;28;20023;-64
2023/11/26 13:53:19;;;;;;;5.27;1.50;;;;;;;;;;5034937;28;20534;-64
2023/11/26 13:55:45;;;;;;;4.57;1.17;;;;;;;;;;5036590;28;20053;-61
2023/11/26 13:58:10;;;;;;;7.40;1.50;;;;;;;;;;5038522;28;20020;-65
2023/11/26 14:00:35;;;;;;;5.70;1.50;;;;;;;;;;5033088;28;20026;-62
2023/11/26 14:03:01;;;;;;;8.33;1.60;;;;;;;;;;5036738;28;20560;-62
2023/11/26 14:05:27;;;;;;;12.70;2.10;;;;;;;;;;5035052;28;20551;-64
2023/11/26 14:07:52;;;;;;;11.87;2.70;;;;;;;;;;5035057;28;20090;-65
2023/11/26 14:10:20;;;;;;;8.77;2.20;;;;;;;;;;5034560;28;20119;-64
2023/11/26 14:12:45;;;;;;;12.80;2.30;;;;;;;;;;5036532;28;20067;-63
2023/11/26 14:15:11;;;;;;;9.03;2.40;;;;;;;;;;5035745;28;20025;-65
2023/11/26 14:17:37;;;;;;;9.40;2.20;;;;;;;;;;5042381;28;20022;-63
2023/11/26 14:20:04;;;;;;;6.07;1.90;;;;;;;;;;5038847;28;20028;-63